sensor_id;sensor_type;location;lat;lon;timestamp;pressure;altitude;pressure_sealevel;temperature;humidity
12486;BME280;6307;46.804;11.580;2023-03-01T00:01:20;-20924.88;;;2.43;72.22
12486;BME280;6307;46.804;11.580;2023-03-01T00:03:48;-20923.53;;;2.39;70.61
12486;BME280;6307;46.804;11.580;2023-03-01T00:06:15;-20917.19;;;2.18;74.17
12486;BME280;6307;46.804;11.580;2023-03-01T00:08:42;-20922.00;;;2.34;72.22
12486;BME280;6307;46.804;11.580;2023-03-01T00:11:10;-20922.00;;;2.34;72.40
12486;BME280;6307;46.804;11.580;2023-03-01T00:13:43;-20923.06;;;2.37;71.52
12486;BME280;6307;46.804;11.580;2023-03-01T00:16:13;-20923.97;;;2.40;69.52
12486;BME280;6307;46.804;11.580;2023-03-01T00:18:42;-20917.63;;;2.19;73.68
12486;BME280;6307;46.804;11.580;2023-03-01T00:21:08;-20915.81;;;2.13;75.37
12486;BME280;6307;46.804;11.580;2023-03-01T00:23:35;-20912.06;;;2.01;76.71
12486;BME280;6307;46.804;11.580;2023-03-01T00:26:01;-20910.25;;;1.95;79.26
12486;BME280;6307;46.804;11.580;2023-03-01T00:28:31;-20907.22;;;1.85;77.29
12486;BME280;6307;46.804;11.580;2023-03-01T00:31:06;-20906.47;;;1.82;80.16
12486;BME280;6307;46.804;11.580;2023-03-01T00:33:44;-20907.22;;;1.85;79.79
12486;BME280;6307;46.804;11.580;2023-03-01T00:36:12;-20905.25;;;1.78;78.01
12486;BME280;6307;46.804;11.580;2023-03-01T00:38:42;-20903.75;;;1.73;79.80
12486;BME280;6307;46.804;11.580;2023-03-01T00:41:12;-20903.31;;;1.72;81.55
12486;BME280;6307;46.804;11.580;2023-03-01T00:43:40;-20902.84;;;1.70;82.51
12486;BME280;6307;46.804;11.580;2023-03-01T00:46:16;-20906.03;;;1.81;77.68
12486;BME280;6307;46.804;11.580;2023-03-01T00:48:44;-20906.31;;;1.82;79.96
12486;BME280;6307;46.804;11.580;2023-03-01T00:51:14;-20907.06;;;1.84;79.44
12486;BME280;6307;46.804;11.580;2023-03-01T00:53:41;-20914.47;;;2.09;76.35
12486;BME280;6307;46.804;11.580;2023-03-01T00:56:10;-20915.69;;;2.13;76.11
12486;BME280;6307;46.804;11.580;2023-03-01T00:58:37;-20919.44;;;2.25;74.51
12486;BME280;6307;46.804;11.580;2023-03-01T01:01:14;-20914.63;;;2.09;75.17
12486;BME280;6307;46.804;11.580;2023-03-01T01:03:53;-20905.88;;;1.80;82.82
12486;BME280;6307;46.804;11.580;2023-03-01T01:06:24;-20901.78;;;1.67;81.51
12486;BME280;6307;46.804;11.580;2023-03-01T01:08:54;-20905.72;;;1.80;80.35
12486;BME280;6307;46.804;11.580;2023-03-01T01:11:23;-20909.63;;;1.93;80.62
12486;BME280;6307;46.804;11.580;2023-03-01T01:13:50;-20912.06;;;2.01;82.01
12486;BME280;6307;46.804;11.580;2023-03-01T01:16:18;-20901.19;;;1.65;83.70
12486;BME280;6307;46.804;11.580;2023-03-01T01:18:46;-20900.44;;;1.62;88.46
12486;BME280;6307;46.804;11.580;2023-03-01T01:21:15;-20899.38;;;1.59;86.59
12486;BME280;6307;46.804;11.580;2023-03-01T01:23:43;-20902.56;;;1.69;84.03
12486;BME280;6307;46.804;11.580;2023-03-01T01:26:16;-20906.31;;;1.82;86.10
12486;BME280;6307;46.804;11.580;2023-03-01T01:28:47;-20906.94;;;1.84;81.71
12486;BME280;6307;46.804;11.580;2023-03-01T01:31:13;-20909.94;;;1.94;80.92
12486;BME280;6307;46.804;11.580;2023-03-01T01:33:40;-20902.09;;;1.68;81.91
12486;BME280;6307;46.804;11.580;2023-03-01T01:36:06;-20915.06;;;2.11;85.11
12486;BME280;6307;46.804;11.580;2023-03-01T01:38:33;-20920.34;;;2.28;77.65
12486;BME280;6307;46.804;11.580;2023-03-01T01:41:00;-20918.84;;;2.23;76.73
12486;BME280;6307;46.804;11.580;2023-03-01T01:43:29;-20918.84;;;2.23;81.98
12486;BME280;6307;46.804;11.580;2023-03-01T01:49:04;-20922.16;;;2.34;73.72
12486;BME280;6307;46.804;11.580;2023-03-01T01:51:40;-20916.88;;;2.17;74.80
12486;BME280;6307;46.804;11.580;2023-03-01T01:54:15;-20918.53;;;2.22;75.41
12486;BME280;6307;46.804;11.580;2023-03-01T01:56:52;-20912.06;;;2.01;76.52
12486;BME280;6307;46.804;11.580;2023-03-01T01:59:24;-20922.31;;;2.35;74.23
12486;BME280;6307;46.804;11.580;2023-03-01T02:01:52;-20919.75;;;2.26;74.18
12486;BME280;6307;46.804;11.580;2023-03-01T02:04:19;-20918.53;;;2.22;74.84
12486;BME280;6307;46.804;11.580;2023-03-01T02:06:57;-20906.78;;;1.83;78.83
12486;BME280;6307;46.804;11.580;2023-03-01T02:09:33;-20914.16;;;2.08;76.89
12486;BME280;6307;46.804;11.580;2023-03-01T02:12:00;-20914.94;;;2.10;76.18
12486;BME280;6307;46.804;11.580;2023-03-01T02:14:27;-20912.81;;;2.03;76.88
12486;BME280;6307;46.804;11.580;2023-03-01T02:16:53;-20907.97;;;1.87;77.96
12486;BME280;6307;46.804;11.580;2023-03-01T02:19:30;-20915.06;;;2.11;76.08
12486;BME280;6307;46.804;11.580;2023-03-01T02:22:22;-20916.88;;;2.17;75.56
12486;BME280;6307;46.804;11.580;2023-03-01T02:30:25;-20905.25;;;1.78;80.02
12486;BME280;6307;46.804;11.580;2023-03-01T02:32:54;-20904.50;;;1.76;80.38
12486;BME280;6307;46.804;11.580;2023-03-01T02:35:29;-20916.13;;;2.14;76.83
12486;BME280;6307;46.804;11.580;2023-03-01T02:38:01;-20912.66;;;2.03;77.51
12486;BME280;6307;46.804;11.580;2023-03-01T02:40:30;-20914.00;;;2.07;76.05
12486;BME280;6307;46.804;11.580;2023-03-01T02:42:58;-20909.50;;;1.92;78.29
12486;BME280;6307;46.804;11.580;2023-03-01T02:45:25;-20907.97;;;1.87;78.46
12486;BME280;6307;46.804;11.580;2023-03-01T02:47:56;-20912.50;;;2.02;76.81
12486;BME280;6307;46.804;11.580;2023-03-01T02:50:51;-20911.91;;;2.00;76.91
12486;BME280;6307;46.804;11.580;2023-03-01T02:53:45;-20907.53;;;1.86;78.03
12486;BME280;6307;46.804;11.580;2023-03-01T02:56:18;-20909.03;;;1.91;76.90
12486;BME280;6307;46.804;11.580;2023-03-01T02:58:44;-20912.50;;;2.02;76.80
12486;BME280;6307;46.804;11.580;2023-03-01T03:01:13;-20909.78;;;1.93;77.35
12486;BME280;6307;46.804;11.580;2023-03-01T03:03:41;-20910.25;;;1.95;76.13
12486;BME280;6307;46.804;11.580;2023-03-01T03:06:08;-20907.22;;;1.85;78.61
12486;BME280;6307;46.804;11.580;2023-03-01T03:08:34;-20906.47;;;1.82;78.88
12486;BME280;6307;46.804;11.580;2023-03-01T03:11:00;-20905.41;;;1.79;78.09
12486;BME280;6307;46.804;11.580;2023-03-01T03:13:27;-20907.69;;;1.86;77.39
12486;BME280;6307;46.804;11.580;2023-03-01T03:15:54;-20903.00;;;1.71;79.18
12486;BME280;6307;46.804;11.580;2023-03-01T03:18:22;-20906.47;;;1.82;78.88
12486;BME280;6307;46.804;11.580;2023-03-01T03:20:52;-20902.41;;;1.69;79.27
12486;BME280;6307;46.804;11.580;2023-03-01T03:23:20;-20909.63;;;1.93;76.98
12486;BME280;6307;46.804;11.580;2023-03-01T03:25:50;-20904.81;;;1.77;78.93
12486;BME280;6307;46.804;11.580;2023-03-01T03:28:17;-20906.94;;;1.84;77.09
12486;BME280;6307;46.804;11.580;2023-03-01T03:30:43;-20905.41;;;1.79;77.08
12486;BME280;6307;46.804;11.580;2023-03-01T03:33:11;-20907.22;;;1.85;77.28
12486;BME280;6307;46.804;11.580;2023-03-01T03:35:40;-20902.25;;;1.68;79.03
12486;BME280;6307;46.804;11.580;2023-03-01T03:38:15;-20903.31;;;1.72;78.94
12486;BME280;6307;46.804;11.580;2023-03-01T03:41:05;-20907.38;;;1.85;76.85
12486;BME280;6307;46.804;11.580;2023-03-01T03:43:34;-20902.25;;;1.68;78.81
12486;BME280;6307;46.804;11.580;2023-03-01T03:46:03;-20903.00;;;1.71;78.96
12486;BME280;6307;46.804;11.580;2023-03-01T03:48:33;-20902.69;;;1.70;78.73
12486;BME280;6307;46.804;11.580;2023-03-01T03:51:00;-20896.97;;;1.51;80.42
12486;BME280;6307;46.804;11.580;2023-03-01T03:53:28;-20902.56;;;1.69;78.97
12486;BME280;6307;46.804;11.580;2023-03-01T03:55:55;-20898.78;;;1.57;79.33
12486;BME280;6307;46.804;11.580;2023-03-01T03:58:23;-20898.31;;;1.55;79.96
12486;BME280;6307;46.804;11.580;2023-03-01T04:00:52;-20902.69;;;1.70;79.09
12486;BME280;6307;46.804;11.580;2023-03-01T04:03:24;-20897.88;;;1.54;79.94
12486;BME280;6307;46.804;11.580;2023-03-01T04:05:51;-20896.06;;;1.48;80.63
12486;BME280;6307;46.804;11.580;2023-03-01T04:08:19;-20898.94;;;1.57;79.73
12486;BME280;6307;46.804;11.580;2023-03-01T04:10:50;-20895.31;;;1.45;79.24
12486;BME280;6307;46.804;11.580;2023-03-01T04:13:20;-20906.47;;;1.82;76.60
12486;BME280;6307;46.804;11.580;2023-03-01T04:15:51;-20904.06;;;1.74;77.06
12486;BME280;6307;46.804;11.580;2023-03-01T04:18:20;-20901.34;;;1.65;77.85
12486;BME280;6307;46.804;11.580;2023-03-01T04:20:50;-20895.75;;;1.47;78.90
12486;BME280;6307;46.804;11.580;2023-03-01T04:23:20;-20904.06;;;1.74;76.75
12486;BME280;6307;46.804;11.580;2023-03-01T04:25:49;-20903.00;;;1.71;76.93
12486;BME280;6307;46.804;11.580;2023-03-01T04:30:56;-20903.91;;;1.74;77.06
12486;BME280;6307;46.804;11.580;2023-03-01T04:33:24;-20899.53;;;1.59;78.03
12486;BME280;6307;46.804;11.580;2023-03-01T04:35:51;-20899.22;;;1.58;78.28
12486;BME280;6307;46.804;11.580;2023-03-01T04:38:19;-20904.06;;;1.74;76.66
12486;BME280;6307;46.804;11.580;2023-03-01T04:40:46;-20892.00;;;1.34;81.24
12486;BME280;6307;46.804;11.580;2023-03-01T04:43:13;-20897.56;;;1.53;80.91
12486;BME280;6307;46.804;11.580;2023-03-01T04:45:42;-20894.25;;;1.42;84.56
12486;BME280;6307;46.804;11.580;2023-03-01T04:48:09;-20893.50;;;1.39;84.32
12486;BME280;6307;46.804;11.580;2023-03-01T04:50:35;-20897.88;;;1.54;86.35
12486;BME280;6307;46.804;11.580;2023-03-01T04:53:01;-20894.41;;;1.42;82.74
12486;BME280;6307;46.804;11.580;2023-03-01T04:55:28;-20896.38;;;1.49;85.23
12486;BME280;6307;46.804;11.580;2023-03-01T04:57:54;-20893.03;;;1.38;86.34
12486;BME280;6307;46.804;11.580;2023-03-01T05:00:21;-20893.34;;;1.39;86.53
12486;BME280;6307;46.804;11.580;2023-03-01T05:02:56;-20894.84;;;1.44;82.86
12486;BME280;6307;46.804;11.580;2023-03-01T05:05:32;-20894.84;;;1.44;82.56
12486;BME280;6307;46.804;11.580;2023-03-01T05:08:03;-20899.53;;;1.59;87.03
12486;BME280;6307;46.804;11.580;2023-03-01T05:10:33;-20904.38;;;1.75;83.57
12486;BME280;6307;46.804;11.580;2023-03-01T05:13:01;-20898.78;;;1.57;89.19
12486;BME280;6307;46.804;11.580;2023-03-01T05:15:30;-20901.50;;;1.66;81.01
12486;BME280;6307;46.804;11.580;2023-03-01T05:17:58;-20898.47;;;1.56;86.17
12486;BME280;6307;46.804;11.580;2023-03-01T05:20:26;-20891.69;;;1.33;83.47
12486;BME280;6307;46.804;11.580;2023-03-01T05:22:59;-20899.69;;;1.60;81.59
12486;BME280;6307;46.804;11.580;2023-03-01T05:25:30;-20895.47;;;1.46;85.53
12486;BME280;6307;46.804;11.580;2023-03-01T05:28:02;-20893.66;;;1.40;84.11
12486;BME280;6307;46.804;11.580;2023-03-01T05:30:33;-20894.56;;;1.43;83.29
12486;BME280;6307;46.804;11.580;2023-03-01T05:33:00;-20894.41;;;1.42;84.38
12486;BME280;6307;46.804;11.580;2023-03-01T05:35:27;-20892.44;;;1.36;84.14
12486;BME280;6307;46.804;11.580;2023-03-01T05:37:54;-20889.72;;;1.27;83.75
12486;BME280;6307;46.804;11.580;2023-03-01T05:40:22;-20892.91;;;1.37;82.21
12486;BME280;6307;46.804;11.580;2023-03-01T05:42:54;-20890.94;;;1.31;82.97
12486;BME280;6307;46.804;11.580;2023-03-01T05:45:23;-20891.53;;;1.33;82.24
12486;BME280;6307;46.804;11.580;2023-03-01T05:47:51;-20886.72;;;1.17;84.05
12486;BME280;6307;46.804;11.580;2023-03-01T05:50:23;-20886.09;;;1.15;83.45
12486;BME280;6307;46.804;11.580;2023-03-01T05:52:58;-20893.94;;;1.41;83.70
12486;BME280;6307;46.804;11.580;2023-03-01T05:55:27;-20890.63;;;1.30;82.00
12486;BME280;6307;46.804;11.580;2023-03-01T05:57:54;-20892.28;;;1.35;80.57
12486;BME280;6307;46.804;11.580;2023-03-01T06:00:22;-20893.78;;;1.40;80.32
12486;BME280;6307;46.804;11.580;2023-03-01T06:02:49;-20890.94;;;1.31;80.51
12486;BME280;6307;46.804;11.580;2023-03-01T06:05:17;-20890.03;;;1.28;80.22
12486;BME280;6307;46.804;11.580;2023-03-01T06:07:43;-20889.41;;;1.26;80.65
12486;BME280;6307;46.804;11.580;2023-03-01T06:10:11;-20891.84;;;1.34;80.03
12486;BME280;6307;46.804;11.580;2023-03-01T06:12:39;-20897.88;;;1.54;78.35
12486;BME280;6307;46.804;11.580;2023-03-01T06:15:07;-20893.78;;;1.40;79.92
12486;BME280;6307;46.804;11.580;2023-03-01T06:17:36;-20891.84;;;1.34;80.49
12486;BME280;6307;46.804;11.580;2023-03-01T06:20:05;-20891.84;;;1.34;80.94
12486;BME280;6307;46.804;11.580;2023-03-01T06:22:33;-20895.00;;;1.44;79.37
12486;BME280;6307;46.804;11.580;2023-03-01T06:25:00;-20894.72;;;1.43;78.31
12486;BME280;6307;46.804;11.580;2023-03-01T06:27:26;-20899.38;;;1.59;78.07
12486;BME280;6307;46.804;11.580;2023-03-01T06:29:52;-20898.03;;;1.54;77.64
12486;BME280;6307;46.804;11.580;2023-03-01T06:32:18;-20898.47;;;1.56;78.50
12486;BME280;6307;46.804;11.580;2023-03-01T06:34:45;-20900.88;;;1.64;77.53
12486;BME280;6307;46.804;11.580;2023-03-01T06:37:11;-20891.84;;;1.34;78.50
12486;BME280;6307;46.804;11.580;2023-03-01T06:39:37;-20898.19;;;1.55;77.66
12486;BME280;6307;46.804;11.580;2023-03-01T06:42:04;-20899.22;;;1.58;77.55
12486;BME280;6307;46.804;11.580;2023-03-01T06:44:30;-20905.13;;;1.78;74.87
12486;BME280;6307;46.804;11.580;2023-03-01T06:46:56;-20901.34;;;1.65;75.71
12486;BME280;6307;46.804;11.580;2023-03-01T06:49:22;-20899.84;;;1.60;75.73
12486;BME280;6307;46.804;11.580;2023-03-01T06:51:48;-20908.59;;;1.89;74.15
12486;BME280;6307;46.804;11.580;2023-03-01T06:54:14;-20926.69;;;2.49;69.81
12486;BME280;6307;46.804;11.580;2023-03-01T06:56:42;-20947.03;;;3.17;64.75
12486;BME280;6307;46.804;11.580;2023-03-01T06:59:11;-20953.81;;;3.39;60.81
12486;BME280;6307;46.804;11.580;2023-03-01T07:01:37;-20961.81;;;3.66;60.27
12486;BME280;6307;46.804;11.580;2023-03-01T07:04:04;-20958.94;;;3.56;58.88
12486;BME280;6307;46.804;11.580;2023-03-01T07:06:30;-20952.63;;;3.35;59.43
12486;BME280;6307;46.804;11.580;2023-03-01T07:08:56;-20965.88;;;3.79;57.74
12486;BME280;6307;46.804;11.580;2023-03-01T07:11:22;-20978.84;;;4.22;56.40
12486;BME280;6307;46.804;11.580;2023-03-01T07:13:49;-20991.50;;;4.64;52.83
12486;BME280;6307;46.804;11.580;2023-03-01T07:16:15;-20984.41;;;4.41;54.21
12486;BME280;6307;46.804;11.580;2023-03-01T07:18:41;-20976.59;;;4.15;55.05
12486;BME280;6307;46.804;11.580;2023-03-01T07:21:09;-20961.97;;;3.66;57.09
12486;BME280;6307;46.804;11.580;2023-03-01T07:23:38;-20954.13;;;3.40;59.03
12486;BME280;6307;46.804;11.580;2023-03-01T07:26:05;-20942.22;;;3.01;60.58
12486;BME280;6307;46.804;11.580;2023-03-01T07:28:31;-20949.59;;;3.25;60.13
12486;BME280;6307;46.804;11.580;2023-03-01T07:31:04;-20944.47;;;3.08;60.24
12486;BME280;6307;46.804;11.580;2023-03-01T07:33:31;-20941.31;;;2.98;60.70
12486;BME280;6307;46.804;11.580;2023-03-01T07:35:58;-20943.28;;;3.04;60.92
12486;BME280;6307;46.804;11.580;2023-03-01T07:38:26;-20935.75;;;2.79;62.48
12486;BME280;6307;46.804;11.580;2023-03-01T07:40:54;-20934.53;;;2.75;62.74
12486;BME280;6307;46.804;11.580;2023-03-01T07:43:24;-20944.78;;;3.09;61.03
12486;BME280;6307;46.804;11.580;2023-03-01T07:45:50;-20932.72;;;2.69;62.40
12486;BME280;6307;46.804;11.580;2023-03-01T07:48:17;-20939.50;;;2.92;62.52
12486;BME280;6307;46.804;11.580;2023-03-01T07:50:43;-20941.31;;;2.98;62.11
12486;BME280;6307;46.804;11.580;2023-03-01T07:53:09;-20942.38;;;3.01;61.98
12486;BME280;6307;46.804;11.580;2023-03-01T07:55:36;-20943.44;;;3.05;61.51
12486;BME280;6307;46.804;11.580;2023-03-01T07:58:02;-20955.19;;;3.44;58.52
12486;BME280;6307;46.804;11.580;2023-03-01T08:00:29;-20951.88;;;3.33;58.30
12486;BME280;6307;46.804;11.580;2023-03-01T08:02:59;-20974.16;;;4.07;56.32
12486;BME280;6307;46.804;11.580;2023-03-01T08:05:26;-20978.09;;;4.20;55.48
12486;BME280;6307;46.804;11.580;2023-03-01T08:07:53;-20992.84;;;4.69;53.62
12486;BME280;6307;46.804;11.580;2023-03-01T08:10:19;-21001.72;;;4.98;51.17
12486;BME280;6307;46.804;11.580;2023-03-01T08:12:45;-21017.38;;;5.50;49.77
12486;BME280;6307;46.804;11.580;2023-03-01T08:15:12;-21035.75;;;6.11;47.54
12486;BME280;6307;46.804;11.580;2023-03-01T08:17:38;-21043.88;;;6.38;48.01
12486;BME280;6307;46.804;11.580;2023-03-01T08:20:04;-21051.41;;;6.63;46.20
12486;BME280;6307;46.804;11.580;2023-03-01T08:22:32;-21041.91;;;6.32;47.32
12486;BME280;6307;46.804;11.580;2023-03-01T08:24:58;-21030.78;;;5.95;47.09
12486;BME280;6307;46.804;11.580;2023-03-01T08:27:24;-21015.44;;;5.44;47.70
12486;BME280;6307;46.804;11.580;2023-03-01T08:29:50;-21016.03;;;5.46;48.43
12486;BME280;6307;46.804;11.580;2023-03-01T08:32:16;-21011.81;;;5.32;50.06
12486;BME280;6307;46.804;11.580;2023-03-01T08:34:46;-21019.66;;;5.58;48.58
12486;BME280;6307;46.804;11.580;2023-03-01T08:37:12;-21011.38;;;5.30;49.14
12486;BME280;6307;46.804;11.580;2023-03-01T08:39:38;-21000.69;;;4.95;49.83
12486;BME280;6307;46.804;11.580;2023-03-01T08:42:04;-20995.72;;;4.78;49.88
12486;BME280;6307;46.804;11.580;2023-03-01T08:44:30;-21000.53;;;4.94;51.34
12486;BME280;6307;46.804;11.580;2023-03-01T08:46:57;-21000.38;;;4.94;50.75
12486;BME280;6307;46.804;11.580;2023-03-01T08:49:23;-21004.00;;;5.06;49.47
12486;BME280;6307;46.804;11.580;2023-03-01T08:51:49;-21010.31;;;5.27;50.10
12486;BME280;6307;46.804;11.580;2023-03-01T08:54:18;-21014.97;;;5.42;49.34
12486;BME280;6307;46.804;11.580;2023-03-01T08:56:46;-21012.28;;;5.33;48.60
12486;BME280;6307;46.804;11.580;2023-03-01T08:59:14;-21007.75;;;5.18;48.57
12486;BME280;6307;46.804;11.580;2023-03-01T09:01:42;-21011.22;;;5.30;48.61
12486;BME280;6307;46.804;11.580;2023-03-01T09:04:09;-21014.81;;;5.42;48.90
12486;BME280;6307;46.804;11.580;2023-03-01T09:06:36;-21023.72;;;5.71;48.01
12486;BME280;6307;46.804;11.580;2023-03-01T09:09:04;-21021.59;;;5.64;47.73
12486;BME280;6307;46.804;11.580;2023-03-01T09:11:31;-21019.34;;;5.57;48.35
12486;BME280;6307;46.804;11.580;2023-03-01T09:13:58;-21021.16;;;5.63;48.66
12486;BME280;6307;46.804;11.580;2023-03-01T09:16:24;-21024.31;;;5.73;47.84
12486;BME280;6307;46.804;11.580;2023-03-01T09:18:54;-21027.31;;;5.83;47.22
12486;BME280;6307;46.804;11.580;2023-03-01T09:21:22;-21030.78;;;5.95;47.70
12486;BME280;6307;46.804;11.580;2023-03-01T09:23:49;-21035.31;;;6.10;46.53
12486;BME280;6307;46.804;11.580;2023-03-01T09:26:17;-21048.84;;;6.55;45.97
12486;BME280;6307;46.804;11.580;2023-03-01T09:28:47;-21053.66;;;6.71;45.53
12486;BME280;6307;46.804;11.580;2023-03-01T09:31:16;-21054.25;;;6.73;45.67
12486;BME280;6307;46.804;11.580;2023-03-01T09:33:46;-21059.22;;;6.89;44.70
12486;BME280;6307;46.804;11.580;2023-03-01T09:36:17;-21063.28;;;7.03;45.57
12486;BME280;6307;46.804;11.580;2023-03-01T09:38:45;-21057.25;;;6.83;45.08
12486;BME280;6307;46.804;11.580;2023-03-01T09:44:27;-21062.69;;;7.01;44.90
12486;BME280;6307;46.804;11.580;2023-03-01T09:47:02;-21074.41;;;7.39;44.27
12486;BME280;6307;46.804;11.580;2023-03-01T09:49:31;-21074.69;;;7.40;43.92
12486;BME280;6307;46.804;11.580;2023-03-01T09:55:08;-21092.72;;;8.00;42.60
12486;BME280;6307;46.804;11.580;2023-03-01T10:03:10;-21109.88;;;8.57;42.18
12486;BME280;6307;46.804;11.580;2023-03-01T10:08:33;-21095.13;;;8.08;44.75
12486;BME280;6307;46.804;11.580;2023-03-01T10:11:08;-21102.34;;;8.32;43.30
12486;BME280;6307;46.804;11.580;2023-03-01T10:16:41;-21103.84;;;8.37;41.90
12486;BME280;6307;46.804;11.580;2023-03-01T10:19:44;-21105.50;;;8.43;42.11
12486;BME280;6307;46.804;11.580;2023-03-01T10:22:16;-21112.28;;;8.65;42.42
12486;BME280;6307;46.804;11.580;2023-03-01T10:24:50;-21124.44;;;9.06;41.20
12486;BME280;6307;46.804;11.580;2023-03-01T10:27:26;-21134.19;;;9.38;41.40
12486;BME280;6307;46.804;11.580;2023-03-01T10:33:34;-21140.19;;;9.58;41.64
12486;BME280;6307;46.804;11.580;2023-03-01T10:36:03;-21141.25;;;9.62;39.85
12486;BME280;6307;46.804;11.580;2023-03-01T10:38:31;-21155.19;;;10.08;41.57
12486;BME280;6307;46.804;11.580;2023-03-01T10:41:14;-21166.88;;;10.47;39.88
12486;BME280;6307;46.804;11.580;2023-03-01T10:43:49;-21166.44;;;10.46;37.36
12486;BME280;6307;46.804;11.580;2023-03-01T10:46:33;-21165.41;;;10.42;37.35
12486;BME280;6307;46.804;11.580;2023-03-01T10:49:12;-21158.50;;;10.19;37.35
12486;BME280;6307;46.804;11.580;2023-03-01T10:51:48;-21173.19;;;10.68;38.47
12486;BME280;6307;46.804;11.580;2023-03-01T10:54:25;-21182.50;;;10.99;38.76
12486;BME280;6307;46.804;11.580;2023-03-01T10:56:59;-21195.69;;;11.43;38.49
12486;BME280;6307;46.804;11.580;2023-03-01T10:59:36;-21191.63;;;11.30;37.22
12486;BME280;6307;46.804;11.580;2023-03-01T11:07:23;-21169.16;;;10.55;39.04
12486;BME280;6307;46.804;11.580;2023-03-01T11:09:49;-21158.34;;;10.19;39.84
12486;BME280;6307;46.804;11.580;2023-03-01T11:12:17;-21155.19;;;10.08;38.78
12486;BME280;6307;46.804;11.580;2023-03-01T11:14:55;-21156.09;;;10.11;39.47
12486;BME280;6307;46.804;11.580;2023-03-01T11:17:30;-21163.28;;;10.35;39.21
12486;BME280;6307;46.804;11.580;2023-03-01T11:20:01;-21164.78;;;10.40;37.97
12486;BME280;6307;46.804;11.580;2023-03-01T11:22:56;-21164.03;;;10.38;38.95
12486;BME280;6307;46.804;11.580;2023-03-01T11:25:34;-21172.28;;;10.65;40.31
12486;BME280;6307;46.804;11.580;2023-03-01T11:28:06;-21173.78;;;10.70;38.37
12486;BME280;6307;46.804;11.580;2023-03-01T11:30:42;-21179.03;;;10.88;37.90
12486;BME280;6307;46.804;11.580;2023-03-01T11:33:28;-21195.22;;;11.42;37.94
12486;BME280;6307;46.804;11.580;2023-03-01T11:38:48;-21214.41;;;12.06;36.88
12486;BME280;6307;46.804;11.580;2023-03-01T11:41:26;-21221.75;;;12.30;36.89
12486;BME280;6307;46.804;11.580;2023-03-01T11:43:59;-21233.88;;;12.71;34.65
12486;BME280;6307;46.804;11.580;2023-03-01T11:52:26;-21201.66;;;11.63;35.87
12486;BME280;6307;46.804;11.580;2023-03-01T11:58:36;-21198.81;;;11.54;36.68
12486;BME280;6307;46.804;11.580;2023-03-01T12:01:37;-21218.31;;;12.19;35.72
12486;BME280;6307;46.804;11.580;2023-03-01T12:07:29;-21215.16;;;12.08;36.39
12486;BME280;6307;46.804;11.580;2023-03-01T12:10:38;-21198.81;;;11.54;36.59
12486;BME280;6307;46.804;11.580;2023-03-01T12:19:53;-21201.22;;;11.62;36.54
12486;BME280;6307;46.804;11.580;2023-03-01T12:23:07;-21197.47;;;11.49;37.36
12486;BME280;6307;46.804;11.580;2023-03-01T12:26:11;-21195.69;;;11.43;38.18
12486;BME280;6307;46.804;11.580;2023-03-01T12:38:00;-21217.72;;;12.17;36.58
12486;BME280;6307;46.804;11.580;2023-03-01T12:43:17;-21203.16;;;11.68;37.85
12486;BME280;6307;46.804;11.580;2023-03-01T12:51:40;-21187.88;;;11.17;39.45
12486;BME280;6307;46.804;11.580;2023-03-01T12:54:31;-21191.31;;;11.29;38.88
12486;BME280;6307;46.804;11.580;2023-03-01T12:57:06;-21221.00;;;12.28;37.04
12486;BME280;6307;46.804;11.580;2023-03-01T13:03:14;-21198.06;;;11.51;38.78
12486;BME280;6307;46.804;11.580;2023-03-01T13:11:27;-21189.69;;;11.23;38.78
12486;BME280;6307;46.804;11.580;2023-03-01T13:16:47;-21219.19;;;12.22;37.23
12486;BME280;6307;46.804;11.580;2023-03-01T13:19:28;-21233.44;;;12.69;36.44
12486;BME280;6307;46.804;11.580;2023-03-01T13:21:55;-21220.69;;;12.27;36.99
12486;BME280;6307;46.804;11.580;2023-03-01T13:35:02;-21247.50;;;13.16;35.34
12486;BME280;6307;46.804;11.580;2023-03-01T13:37:37;-21200.78;;;11.60;38.55
12486;BME280;6307;46.804;11.580;2023-03-01T13:42:54;-21195.06;;;11.41;39.05
12486;BME280;6307;46.804;11.580;2023-03-01T13:45:26;-21193.28;;;11.35;39.67
12486;BME280;6307;46.804;11.580;2023-03-01T13:48:02;-21193.88;;;11.37;39.79
12486;BME280;6307;46.804;11.580;2023-03-01T13:50:42;-21188.47;;;11.19;40.30
12486;BME280;6307;46.804;11.580;2023-03-01T13:53:17;-21202.56;;;11.66;39.79
12486;BME280;6307;46.804;11.580;2023-03-01T13:55:57;-21212.47;;;11.99;38.28
12486;BME280;6307;46.804;11.580;2023-03-01T13:58:33;-21210.97;;;11.94;39.12
12486;BME280;6307;46.804;11.580;2023-03-01T14:03:51;-21211.72;;;11.97;38.78
12486;BME280;6307;46.804;11.580;2023-03-01T14:06:27;-21208.56;;;11.86;38.90
12486;BME280;6307;46.804;11.580;2023-03-01T14:09:22;-21217.25;;;12.15;38.35
12486;BME280;6307;46.804;11.580;2023-03-01T14:14:54;-21199.88;;;11.57;39.72
12486;BME280;6307;46.804;11.580;2023-03-01T14:20:30;-21204.81;;;11.74;39.65
12486;BME280;6307;46.804;11.580;2023-03-01T14:23:10;-21212.00;;;11.98;38.56
12486;BME280;6307;46.804;11.580;2023-03-01T14:25:46;-21209.63;;;11.90;38.99
12486;BME280;6307;46.804;11.580;2023-03-01T14:28:18;-21213.97;;;12.04;38.77
12486;BME280;6307;46.804;11.580;2023-03-01T14:30:56;-21218.44;;;12.19;38.67
12486;BME280;6307;46.804;11.580;2023-03-01T14:33:35;-21209.16;;;11.88;39.62
12486;BME280;6307;46.804;11.580;2023-03-01T14:36:05;-21190.56;;;11.26;40.62
12486;BME280;6307;46.804;11.580;2023-03-01T14:38:38;-21191.19;;;11.28;40.29
12486;BME280;6307;46.804;11.580;2023-03-01T14:46:20;-21209.16;;;11.88;40.90
12486;BME280;6307;46.804;11.580;2023-03-01T14:48:55;-21208.41;;;11.86;39.80
12486;BME280;6307;46.804;11.580;2023-03-01T14:51:26;-21194.47;;;11.39;40.70
12486;BME280;6307;46.804;11.580;2023-03-01T14:53:52;-21206.03;;;11.78;40.45
12486;BME280;6307;46.804;11.580;2023-03-01T14:56:19;-21216.06;;;12.11;39.13
12486;BME280;6307;46.804;11.580;2023-03-01T14:58:46;-21219.34;;;12.22;39.35
12486;BME280;6307;46.804;11.580;2023-03-01T15:01:16;-21218.59;;;12.20;39.19
12486;BME280;6307;46.804;11.580;2023-03-01T15:03:48;-21194.19;;;11.38;40.96
12486;BME280;6307;46.804;11.580;2023-03-01T15:06:18;-21220.69;;;12.27;39.68
12486;BME280;6307;46.804;11.580;2023-03-01T15:08:49;-21190.28;;;11.25;41.00
12486;BME280;6307;46.804;11.580;2023-03-01T15:11:28;-21206.03;;;11.78;39.71
12486;BME280;6307;46.804;11.580;2023-03-01T15:13:56;-21192.69;;;11.33;40.84